createdAt,value
2019-03-08T00:00:22.328Z,3.15
2019-03-08T00:04:26.871Z,6.83
2019-03-08T00:08:31.442Z,2.87
2019-03-08T00:12:36.368Z,5.05
2019-03-08T00:16:40.954Z,3.95
2019-03-08T00:20:45.496Z,5.65
2019-03-08T00:24:50.058Z,4.87
2019-03-08T00:28:55.190Z,5.50
2019-03-08T00:32:59.851Z,5.90
2019-03-08T00:37:04.410Z,4.85
2019-03-08T00:41:09.064Z,6.97
2019-03-08T00:45:13.647Z,3.30
2019-03-08T00:49:18.195Z,4.33
2019-03-08T00:53:22.811Z,4.45
2019-03-08T00:57:27.363Z,5.70
2019-03-08T01:01:32.047Z,4.22
2019-03-08T01:05:36.603Z,3.90
2019-03-08T01:09:41.153Z,5.03
2019-03-08T01:13:45.652Z,5.05
2019-03-08T01:17:50.352Z,4.67
2019-03-08T01:21:54.913Z,5.15
2019-03-08T01:25:59.449Z,4.00
2019-03-08T01:30:04.717Z,4.25
2019-03-08T01:34:09.237Z,3.12
2019-03-08T01:38:13.790Z,6.65
2019-03-08T01:42:18.350Z,4.65
2019-03-08T01:46:22.975Z,5.33
2019-03-08T01:50:27.561Z,5.00
2019-03-08T01:54:32.190Z,5.75
2019-03-08T01:58:36.740Z,5.72
2019-03-08T02:02:41.308Z,4.78
2019-03-08T02:06:45.863Z,6.42
2019-03-08T02:10:50.403Z,4.25
2019-03-08T02:14:55.118Z,5.70
2019-03-08T02:18:59.707Z,4.50
2019-03-08T02:23:04.292Z,3.98
2019-03-08T02:27:08.841Z,5.28
2019-03-08T02:31:13.402Z,5.33
2019-03-08T02:35:19.222Z,4.90
2019-03-08T02:39:23.909Z,6.25
2019-03-08T02:43:28.914Z,3.27
2019-03-08T02:47:33.529Z,3.77
2019-03-08T02:51:38.228Z,3.37
2019-03-08T02:55:42.804Z,2.92
2019-03-08T02:59:47.333Z,2.58
2019-03-08T03:03:51.880Z,2.05
2019-03-08T03:07:56.444Z,1.87
2019-03-08T03:12:01.008Z,1.98
2019-03-08T03:16:05.588Z,1.70
2019-03-08T03:20:10.259Z,4.92
2019-03-08T03:24:14.847Z,3.15
2019-03-08T03:28:19.390Z,2.90
2019-03-08T03:32:23.970Z,1.80
2019-03-08T03:36:28.524Z,2.30
2019-03-08T03:40:33.236Z,3.13
2019-03-08T03:44:37.808Z,2.83
2019-03-08T03:48:42.356Z,3.17
2019-03-08T03:52:46.945Z,3.70
2019-03-08T03:56:53.478Z,3.40
2019-03-08T04:00:57.681Z,2.83
2019-03-08T04:05:02.239Z,3.93
2019-03-08T04:09:13.523Z,3.12
2019-03-08T04:13:18.174Z,2.30
2019-03-08T04:17:22.793Z,3.20
2019-03-08T04:21:27.313Z,3.83
2019-03-08T04:25:31.892Z,2.92
2019-03-08T04:29:36.437Z,5.28
2019-03-08T04:33:41.009Z,3.33
2019-03-08T04:37:45.539Z,4.33
2019-03-08T04:41:50.096Z,6.57
2019-03-08T04:45:54.691Z,4.95
2019-03-08T04:49:59.247Z,3.70
2019-03-08T04:54:03.806Z,4.65
2019-03-08T04:58:08.348Z,6.12
2019-03-08T05:02:12.905Z,7.87
2019-03-08T05:06:17.668Z,4.92
2019-03-08T05:10:22.349Z,6.22
2019-03-08T05:14:26.929Z,4.77
2019-03-08T05:18:32.952Z,6.05
2019-03-08T05:22:37.754Z,7.47
2019-03-08T05:26:42.328Z,7.60
2019-03-08T05:30:46.893Z,9.08
2019-03-08T05:34:51.625Z,7.50
2019-03-08T05:38:56.212Z,5.67
2019-03-08T05:43:00.768Z,7.62
2019-03-08T05:47:05.385Z,6.62
2019-03-08T05:51:09.963Z,7.90
2019-03-08T05:55:14.591Z,6.23
2019-03-08T05:59:19.172Z,6.50
2019-03-08T06:03:23.838Z,10.53
2019-03-08T06:07:28.385Z,7.87
2019-03-08T06:11:33.043Z,9.60
2019-03-08T06:15:37.572Z,8.00
2019-03-08T06:19:42.169Z,11.05
2019-03-08T06:23:46.745Z,10.32
2019-03-08T06:27:51.384Z,11.18
2019-03-08T06:31:56.029Z,12.68
2019-03-08T06:36:00.654Z,11.43
2019-03-08T06:40:05.696Z,13.32
2019-03-08T06:44:10.315Z,11.60
2019-03-08T06:48:15.221Z,8.98
2019-03-08T06:52:19.841Z,8.85
2019-03-08T06:56:24.522Z,7.40
2019-03-08T07:00:38.794Z,7.70
2019-03-08T07:04:43.425Z,9.18
2019-03-08T07:08:48.369Z,9.03
2019-03-08T07:13:02.784Z,8.83
2019-03-08T07:17:02.224Z,8.65
2019-03-08T07:21:15.653Z,7.97
2019-03-08T07:25:39.009Z,12.55
2019-03-08T07:30:08.674Z,12.00
2019-03-08T07:34:50.407Z,15.13
2019-03-08T07:39:12.852Z,14.73
2019-03-08T07:43:30.295Z,16.65
2019-03-08T07:47:40.896Z,15.93
2019-03-08T07:52:19.601Z,18.73
2019-03-08T07:56:34.451Z,20.15
2019-03-08T08:00:49.536Z,15.30
2019-03-08T08:05:02.488Z,18.82
2019-03-08T08:09:26.592Z,17.95
2019-03-08T08:13:54.931Z,22.05
2019-03-08T08:18:06.363Z,23.65
2019-03-08T08:22:29.202Z,21.73
2019-03-08T08:26:51.588Z,19.50
2019-03-08T08:31:33.517Z,17.40
2019-03-08T08:35:59.659Z,25.95
2019-03-08T08:40:27.341Z,16.65
2019-03-08T08:44:56.971Z,15.68
2019-03-08T08:49:19.286Z,19.42
2019-03-08T08:53:54.816Z,21.07
2019-03-08T08:58:21.408Z,21.27
2019-03-08T09:02:50.470Z,20.77
2019-03-08T09:07:07.895Z,17.98
2019-03-08T09:11:45.866Z,22.47
2019-03-08T09:16:03.007Z,19.02
2019-03-08T09:20:30.007Z,18.85
2019-03-08T09:24:53.580Z,23.77
2019-03-08T09:29:20.254Z,20.13
2019-03-08T09:33:35.536Z,12.40
2019-03-08T09:37:47.496Z,9.10
2019-03-08T09:42:07.706Z,12.43
2019-03-08T09:46:34.214Z,10.90
2019-03-08T09:51:00.964Z,15.83
2019-03-08T09:55:13.963Z,12.43
2019-03-08T09:59:28.748Z,15.43
2019-03-08T10:04:04.764Z,15.23
2019-03-08T10:08:37.458Z,17.12
2019-03-08T10:13:08.093Z,16.87
2019-03-08T10:17:37.456Z,12.15
2019-03-08T10:22:06.814Z,13.20
2019-03-08T10:26:32.280Z,15.88
2019-03-08T10:31:08.187Z,13.53
2019-03-08T10:35:30.650Z,16.03
2019-03-08T10:39:52.811Z,13.60
2019-03-08T10:44:25.413Z,18.73
2019-03-08T10:48:54.711Z,17.57
2019-03-08T10:53:10.662Z,15.97
2019-03-08T10:57:46.092Z,15.83
2019-03-08T11:02:06.817Z,16.77
2019-03-08T11:06:29.193Z,15.48
2019-03-08T11:10:50.090Z,11.25
2019-03-08T11:15:25.957Z,15.85
2019-03-08T11:19:48.392Z,13.48
2019-03-08T11:24:19.069Z,16.62
2019-03-08T11:28:32.897Z,13.10
2019-03-08T11:32:59.865Z,14.33
2019-03-08T11:37:18.482Z,12.68
2019-03-08T11:41:33.749Z,12.57
2019-03-08T11:45:48.167Z,16.50
2019-03-08T11:50:24.105Z,18.23
2019-03-08T11:54:47.004Z,13.80
2019-03-08T11:59:13.343Z,15.65
2019-03-08T12:03:41.945Z,14.85
2019-03-08T12:08:05.441Z,16.52
2019-03-08T12:12:27.986Z,14.00
2019-03-08T12:16:49.296Z,12.30
2019-03-08T12:21:13.762Z,12.28
2019-03-08T12:25:40.947Z,9.25
2019-03-08T12:30:06.836Z,10.55
2019-03-08T12:34:29.307Z,10.82
2019-03-08T12:38:42.206Z,11.08
2019-03-08T12:43:08.268Z,13.70
2019-03-08T12:47:21.450Z,11.83
2019-03-08T12:51:30.630Z,16.23
2019-03-08T12:55:56.973Z,11.30
2019-03-08T13:00:26.353Z,13.95
2019-03-08T13:04:49.846Z,14.27
2019-03-08T13:09:18.087Z,13.03
2019-03-08T13:13:22.687Z,10.75
2019-03-08T13:17:27.326Z,13.30
2019-03-08T13:21:31.920Z,15.57
2019-03-08T13:25:36.524Z,14.38
2019-03-08T13:29:41.158Z,13.10
2019-03-08T13:33:46.292Z,13.70
2019-03-08T13:37:50.915Z,14.33
2019-03-08T13:41:55.549Z,11.78
2019-03-08T13:46:00.160Z,12.35
2019-03-08T13:50:05.375Z,12.30
2019-03-08T13:54:09.994Z,11.05
2019-03-08T13:58:14.608Z,10.00
2019-03-08T14:02:19.256Z,11.88
2019-03-08T14:06:23.810Z,13.43
2019-03-08T14:10:28.453Z,13.50
2019-03-08T14:14:33.102Z,15.18
2019-03-08T14:18:37.755Z,14.98
2019-03-08T14:22:42.408Z,13.20
2019-03-08T14:26:47.142Z,12.80
2019-03-08T14:30:58.308Z,14.18
2019-03-08T14:35:03.257Z,14.13
2019-03-08T14:39:08.853Z,12.90
2019-03-08T14:43:22.485Z,10.17
2019-03-08T14:47:45.976Z,13.25
2019-03-08T14:51:50.556Z,14.75
2019-03-08T14:55:58.761Z,15.38
2019-03-08T15:00:01.368Z,16.43
2019-03-08T15:04:05.976Z,13.28
2019-03-08T15:08:13.703Z,15.63
2019-03-08T15:12:16.986Z,15.50
2019-03-08T15:16:21.619Z,12.93
2019-03-08T15:20:26.312Z,10.70
2019-03-08T15:24:38.061Z,12.78
2019-03-08T15:28:37.124Z,13.50
2019-03-08T15:32:41.941Z,13.62
2019-03-08T15:36:46.514Z,13.50
2019-03-08T15:40:51.122Z,11.35
2019-03-08T15:44:55.699Z,11.65
2019-03-08T15:49:00.248Z,15.68
2019-03-08T15:53:04.888Z,13.45
2019-03-08T15:57:09.479Z,10.10
2019-03-08T16:01:14.065Z,12.37
2019-03-08T16:05:18.757Z,7.50
2019-03-08T16:09:23.294Z,7.92
2019-03-08T16:13:27.993Z,8.15
2019-03-08T16:17:32.717Z,7.30
2019-03-08T16:21:37.372Z,6.30
2019-03-08T16:25:47.536Z,7.62
2019-03-08T16:29:48.229Z,7.42
2019-03-08T16:33:54.649Z,11.03
2019-03-08T16:38:20.252Z,11.00
2019-03-08T16:42:32.892Z,9.20
2019-03-08T16:47:02.546Z,8.35
2019-03-08T16:51:30.322Z,10.78
2019-03-08T16:55:52.397Z,11.00
2019-03-08T17:00:08.641Z,9.38
2019-03-08T17:04:47.793Z,11.60
2019-03-08T17:09:09.953Z,8.60
2019-03-08T17:13:45.916Z,12.15
2019-03-08T17:18:18.532Z,13.38
2019-03-08T17:22:35.623Z,8.83
2019-03-08T17:27:01.987Z,10.48
2019-03-08T17:31:26.338Z,13.28
2019-03-08T17:35:53.384Z,9.83
2019-03-08T17:40:27.966Z,11.95
2019-03-08T17:44:54.385Z,7.83
2019-03-08T17:49:23.689Z,9.68
2019-03-08T17:53:47.181Z,9.75
2019-03-08T17:58:09.402Z,8.65
2019-03-08T18:02:35.633Z,9.05
2019-03-08T18:07:02.193Z,10.63
2019-03-08T18:11:19.021Z,7.70
2019-03-08T18:15:57.757Z,10.43
2019-03-08T18:20:24.418Z,12.13
2019-03-08T18:24:50.041Z,10.85
2019-03-08T18:29:06.761Z,12.23
2019-03-08T18:34:24.526Z,37.40
2019-03-08T18:38:47.000Z,19.43
2019-03-08T18:43:13.454Z,16.25
2019-03-08T18:47:46.293Z,10.10
2019-03-08T18:52:12.486Z,12.03
2019-03-08T18:56:33.677Z,10.82
2019-03-08T19:00:58.176Z,10.35
2019-03-08T19:05:17.764Z,8.95
2019-03-08T19:09:42.855Z,11.90
2019-03-08T19:14:18.461Z,11.45
2019-03-08T19:18:49.174Z,8.70
2019-03-08T19:23:12.747Z,10.93
2019-03-08T19:27:39.277Z,9.23
2019-03-08T19:32:11.837Z,8.33
2019-03-08T19:36:26.666Z,9.35
2019-03-08T19:40:57.725Z,9.80
2019-03-08T19:45:36.301Z,11.93
2019-03-08T19:49:59.801Z,8.03
2019-03-08T19:54:15.652Z,12.30
2019-03-08T19:58:39.145Z,9.68
2019-03-08T20:03:07.088Z,8.83
2019-03-08T20:07:48.820Z,8.28
2019-03-08T20:12:27.712Z,11.83
2019-03-08T20:16:51.633Z,9.83
2019-03-08T20:21:17.671Z,8.28
2019-03-08T20:25:39.885Z,10.20
2019-03-08T20:30:15.481Z,11.48
2019-03-08T20:34:29.337Z,11.07
2019-03-08T20:38:48.186Z,11.57
2019-03-08T20:43:00.801Z,12.50
2019-03-08T20:47:08.982Z,11.40
2019-03-08T20:51:13.549Z,12.37
2019-03-08T20:55:18.121Z,11.83
2019-03-08T20:59:24.848Z,12.60
2019-03-08T21:03:28.937Z,12.00
2019-03-08T21:07:33.682Z,13.98
2019-03-08T21:11:38.242Z,10.08
2019-03-08T21:15:42.861Z,6.83
2019-03-08T21:19:47.425Z,7.63
2019-03-08T21:23:52.068Z,7.53
2019-03-08T21:27:56.945Z,6.22
2019-03-08T21:32:01.512Z,6.95
2019-03-08T21:36:06.175Z,5.58
2019-03-08T21:40:10.924Z,4.42
2019-03-08T21:44:15.445Z,4.90
2019-03-08T21:48:20.013Z,4.40
2019-03-08T21:52:24.592Z,3.67
2019-03-08T21:56:29.164Z,4.20
2019-03-08T22:00:33.724Z,2.67
2019-03-08T22:04:42.470Z,4.20
2019-03-08T22:09:05.950Z,3.62
2019-03-08T22:13:10.509Z,3.00
2019-03-08T22:17:15.125Z,3.90
2019-03-08T22:21:19.891Z,3.10
2019-03-08T22:25:24.944Z,3.20
2019-03-08T22:29:29.500Z,4.93
2019-03-08T22:33:34.075Z,5.08
2019-03-08T22:37:38.656Z,5.37
2019-03-08T22:41:43.469Z,6.40
2019-03-08T22:45:48.036Z,6.28
2019-03-08T22:49:52.617Z,7.20
2019-03-08T22:53:57.163Z,6.47
2019-03-08T22:58:01.747Z,6.58
2019-03-08T23:02:10.523Z,7.12
2019-03-08T23:06:15.116Z,6.72
2019-03-08T23:10:19.676Z,8.53
2019-03-08T23:14:24.272Z,9.20
2019-03-08T23:18:28.872Z,8.38
2019-03-08T23:22:33.794Z,10.63
2019-03-08T23:27:02.958Z,8.58
2019-03-08T23:31:27.340Z,10.13
2019-03-08T23:35:31.937Z,8.48
2019-03-08T23:39:36.513Z,9.93
2019-03-08T23:43:41.032Z,10.27
2019-03-08T23:47:45.622Z,10.65
2019-03-08T23:51:50.184Z,9.10
2019-03-08T23:55:54.745Z,11.90
2019-03-08T23:59:59.529Z,7.87
